createdAt,value
2017-03-27T00:00:21.175Z,24.29
2017-03-27T00:01:26.541Z,27.30
2017-03-27T00:02:30.912Z,23.70
2017-03-27T00:03:35.590Z,27.90
2017-03-27T00:04:40.240Z,23.20
2017-03-27T00:05:44.808Z,21.77
2017-03-27T00:06:49.200Z,20.56
2017-03-27T00:07:58.867Z,21.73
2017-03-27T00:09:03.044Z,23.51
2017-03-27T00:10:07.559Z,18.84
2017-03-27T00:11:12.828Z,20.97
2017-03-27T00:12:17.138Z,23.07
2017-03-27T00:13:21.695Z,17.11
2017-03-27T00:14:31.509Z,19.14
2017-03-27T00:15:35.665Z,22.49
2017-03-27T00:16:40.788Z,18.20
2017-03-27T00:17:44.348Z,21.86
2017-03-27T00:18:48.638Z,18.86
2017-03-27T00:19:54.104Z,21.66
2017-03-27T00:20:58.588Z,20.87
2017-03-27T00:22:02.450Z,18.81
2017-03-27T00:23:10.951Z,19.84
2017-03-27T00:24:15.902Z,20.09
2017-03-27T00:25:20.310Z,18.40
2017-03-27T00:26:23.525Z,30.13
2017-03-27T00:27:28.965Z,22.14
2017-03-27T00:28:34.383Z,20.49
2017-03-27T00:29:38.647Z,19.70
2017-03-27T00:30:43.292Z,21.01
2017-03-27T00:31:47.626Z,20.77
2017-03-27T00:32:51.509Z,21.33
2017-03-27T00:33:55.500Z,19.16
2017-03-27T00:34:59.393Z,19.63
2017-03-27T00:36:04.640Z,19.49
2017-03-27T00:37:09.009Z,18.06
2017-03-27T00:38:13.452Z,19.29
2017-03-27T00:39:17.925Z,21.34
2017-03-27T00:40:22.440Z,25.79
2017-03-27T00:41:26.020Z,21.93
2017-03-27T00:42:30.135Z,21.23
2017-03-27T00:43:34.085Z,19.61
2017-03-27T00:44:38.712Z,20.86
2017-03-27T00:45:43.608Z,20.66
2017-03-27T00:46:48.365Z,22.07
2017-03-27T00:47:52.576Z,26.09
2017-03-27T00:48:57.096Z,23.07
2017-03-27T00:50:01.516Z,19.10
2017-03-27T00:51:05.527Z,24.14
2017-03-27T00:52:10.230Z,21.59
2017-03-27T00:53:15.737Z,20.99
2017-03-27T00:54:19.964Z,18.99
2017-03-27T00:55:24.512Z,20.27
2017-03-27T00:56:29.306Z,18.97
2017-03-27T00:57:34.349Z,20.51
2017-03-27T00:58:38.781Z,20.31
2017-03-27T00:59:42.960Z,16.48
2017-03-27T01:00:47.418Z,20.03
2017-03-27T01:01:51.366Z,15.56
2017-03-27T01:02:54.024Z,20.59
2017-03-27T01:03:56.452Z,19.38
2017-03-27T01:05:00.816Z,20.90
2017-03-27T01:06:05.373Z,17.40
2017-03-27T01:07:09.743Z,17.83
2017-03-27T01:08:14.517Z,22.89
2017-03-27T01:09:19.165Z,21.39
2017-03-27T01:10:23.652Z,21.26
2017-03-27T01:11:28.226Z,17.46
2017-03-27T01:12:32.577Z,19.64
2017-03-27T01:13:37.009Z,17.80
2017-03-27T01:14:41.677Z,17.13
2017-03-27T01:15:45.861Z,19.20
2017-03-27T01:16:49.478Z,16.93
2017-03-27T01:17:53.877Z,21.57
2017-03-27T01:18:58.248Z,15.73
2017-03-27T01:20:02.716Z,18.66
2017-03-27T01:21:07.227Z,15.66
2017-03-27T01:22:11.793Z,17.38
2017-03-27T01:23:16.424Z,16.73
2017-03-27T01:24:21.793Z,15.57
2017-03-27T01:25:25.983Z,19.40
2017-03-27T01:26:30.274Z,19.19
2017-03-27T01:27:34.816Z,18.87
2017-03-27T01:28:39.261Z,19.63
2017-03-27T01:29:43.640Z,18.37
2017-03-27T01:30:48.154Z,19.74
2017-03-27T01:31:52.572Z,20.09
2017-03-27T01:32:56.951Z,19.34
2017-03-27T01:34:01.454Z,19.11
2017-03-27T01:35:05.860Z,18.47
2017-03-27T01:36:11.233Z,15.35
2017-03-27T01:37:15.644Z,17.71
2017-03-27T01:38:20.215Z,16.57
2017-03-27T01:39:24.533Z,19.24
2017-03-27T01:40:28.887Z,16.98
2017-03-27T01:41:33.278Z,17.41
2017-03-27T01:42:37.753Z,15.75
2017-03-27T01:43:47.408Z,18.45
2017-03-27T01:44:51.586Z,19.80
2017-03-27T01:45:55.853Z,15.47
2017-03-27T01:46:59.069Z,16.20
2017-03-27T01:48:03.043Z,18.79
2017-03-27T01:49:08.346Z,16.56
2017-03-27T01:50:13.497Z,18.71
2017-03-27T01:51:17.280Z,16.42
2017-03-27T01:52:22.621Z,15.90
2017-03-27T01:53:26.997Z,19.56
2017-03-27T01:54:31.293Z,14.08
2017-03-27T01:55:36.392Z,16.93
2017-03-27T01:56:41.481Z,17.18
2017-03-27T01:57:45.978Z,14.50
2017-03-27T01:58:50.296Z,17.32
2017-03-27T01:59:54.817Z,16.23
2017-03-27T02:00:59.042Z,15.09
2017-03-27T02:02:03.704Z,20.76
2017-03-27T02:03:08.229Z,15.55
2017-03-27T02:04:12.685Z,16.67
2017-03-27T02:05:17.048Z,17.09
2017-03-27T02:06:21.602Z,21.13
2017-03-27T02:07:25.961Z,17.67
2017-03-27T02:08:30.321Z,15.60
2017-03-27T02:09:35.487Z,16.31
2017-03-27T02:10:40.493Z,15.97
2017-03-27T02:11:44.768Z,18.66
2017-03-27T02:12:52.266Z,17.52
2017-03-27T02:13:56.740Z,17.17
2017-03-27T02:15:01.184Z,16.38
2017-03-27T02:16:05.683Z,20.01
2017-03-27T02:17:16.308Z,17.66
2017-03-27T02:18:20.517Z,16.03
2017-03-27T02:19:24.950Z,18.96
2017-03-27T02:20:29.432Z,19.60
2017-03-27T02:21:33.900Z,16.73
2017-03-27T02:22:38.397Z,16.42
2017-03-27T02:23:43.098Z,17.63
2017-03-27T02:24:47.357Z,16.45
2017-03-27T02:25:51.895Z,17.13
2017-03-27T02:26:57.269Z,12.42
2017-03-27T02:28:01.870Z,18.18
2017-03-27T02:29:06.381Z,13.95
2017-03-27T02:30:11.085Z,19.10
2017-03-27T02:31:15.543Z,17.35
2017-03-27T02:32:20.554Z,13.88
2017-03-27T02:33:25.050Z,15.27
2017-03-27T02:34:29.396Z,14.24
2017-03-27T02:35:33.969Z,12.83
2017-03-27T02:36:38.325Z,16.87
2017-03-27T02:37:43.015Z,16.08
2017-03-27T02:38:47.293Z,17.05
2017-03-27T02:39:50.542Z,16.22
2017-03-27T02:40:54.929Z,17.37
2017-03-27T02:42:00.277Z,17.00
2017-03-27T02:43:04.042Z,15.28
2017-03-27T02:44:06.985Z,20.60
2017-03-27T02:45:12.302Z,20.56
2017-03-27T02:46:14.975Z,20.00
2017-03-27T02:47:19.477Z,20.65
2017-03-27T02:48:23.864Z,18.27
2017-03-27T02:49:27.729Z,20.02
2017-03-27T02:50:32.958Z,18.07
2017-03-27T02:51:37.347Z,18.48
2017-03-27T02:52:41.869Z,19.87
2017-03-27T02:53:46.229Z,17.47
2017-03-27T02:54:50.728Z,16.02
2017-03-27T02:55:55.706Z,17.78
2017-03-27T02:56:59.653Z,16.08
2017-03-27T02:58:04.053Z,15.22
2017-03-27T02:59:08.680Z,20.78
2017-03-27T03:00:13.897Z,22.73
2017-03-27T03:01:17.645Z,18.17
2017-03-27T03:02:22.690Z,17.42
2017-03-27T03:03:27.143Z,16.00
2017-03-27T03:04:31.565Z,13.23
2017-03-27T03:05:36.177Z,14.12
2017-03-27T03:06:41.536Z,14.50
2017-03-27T03:07:46.417Z,16.45
2017-03-27T03:08:50.664Z,16.78
2017-03-27T03:09:55.253Z,19.45
2017-03-27T03:10:59.595Z,15.95
2017-03-27T03:12:03.889Z,14.97
2017-03-27T03:13:08.558Z,20.13
2017-03-27T03:14:12.489Z,16.59
2017-03-27T03:15:17.448Z,19.40
2017-03-27T03:16:22.016Z,19.43
2017-03-27T03:17:26.295Z,19.07
2017-03-27T03:18:30.801Z,21.93
2017-03-27T03:19:35.336Z,17.19
2017-03-27T03:20:39.942Z,17.36
2017-03-27T03:21:44.341Z,16.39
2017-03-27T03:22:48.859Z,18.20
2017-03-27T03:23:53.300Z,16.40
2017-03-27T03:24:57.761Z,19.65
2017-03-27T03:26:02.312Z,20.33
2017-03-27T03:27:06.942Z,17.78
2017-03-27T03:28:11.952Z,22.23
2017-03-27T03:29:16.459Z,18.48
2017-03-27T03:30:21.845Z,14.68
2017-03-27T03:31:26.378Z,16.60
2017-03-27T03:32:35.931Z,19.55
2017-03-27T03:33:40.665Z,16.63
2017-03-27T03:34:45.521Z,17.90
2017-03-27T03:35:50.036Z,20.08
2017-03-27T03:36:54.451Z,17.13
2017-03-27T03:37:59.506Z,18.63
2017-03-27T03:39:04.340Z,15.80
2017-03-27T03:40:08.890Z,18.02
2017-03-27T03:41:13.395Z,18.20
2017-03-27T03:42:18.008Z,18.82
2017-03-27T03:43:21.626Z,16.18
2017-03-27T03:44:25.717Z,20.22
2017-03-27T03:45:29.480Z,18.87
2017-03-27T03:46:40.832Z,19.53
2017-03-27T03:47:51.232Z,17.97
2017-03-27T03:48:56.245Z,21.43
2017-03-27T03:50:00.712Z,15.22
2017-03-27T03:51:05.111Z,22.15
2017-03-27T03:52:09.436Z,18.38
2017-03-27T03:53:14.154Z,16.13
2017-03-27T03:54:18.491Z,21.20
2017-03-27T03:55:23.040Z,18.96
2017-03-27T03:56:26.612Z,19.86
2017-03-27T03:57:29.997Z,20.33
2017-03-27T03:58:34.176Z,20.38
2017-03-27T03:59:38.682Z,17.30
2017-03-27T04:00:43.560Z,17.48
2017-03-27T04:01:48.448Z,20.60
2017-03-27T04:02:53.036Z,18.90
2017-03-27T04:03:57.873Z,18.15
2017-03-27T04:05:01.440Z,18.72
2017-03-27T04:06:05.524Z,17.95
2017-03-27T04:07:09.359Z,20.07
2017-03-27T04:08:12.272Z,17.33
2017-03-27T04:09:16.959Z,16.78
2017-03-27T04:10:21.552Z,16.68
2017-03-27T04:11:26.061Z,25.97
2017-03-27T04:12:36.601Z,21.56
2017-03-27T04:13:40.740Z,20.70
2017-03-27T04:14:45.036Z,20.05
2017-03-27T04:15:48.820Z,20.08
2017-03-27T04:16:52.921Z,21.88
2017-03-27T04:17:57.233Z,18.85
2017-03-27T04:19:02.725Z,22.77
2017-03-27T04:20:07.667Z,20.58
2017-03-27T04:21:11.892Z,18.80
2017-03-27T04:22:16.537Z,17.98
2017-03-27T04:23:21.158Z,20.40
2017-03-27T04:24:25.391Z,17.22
2017-03-27T04:25:29.774Z,17.73
2017-03-27T04:26:34.260Z,19.98
2017-03-27T04:27:39.710Z,19.32
2017-03-27T04:28:44.072Z,19.00
2017-03-27T04:29:48.707Z,19.18
2017-03-27T04:30:53.237Z,18.37
2017-03-27T04:31:57.333Z,18.15
2017-03-27T04:33:02.114Z,17.33
2017-03-27T04:34:07.209Z,17.02
2017-03-27T04:35:11.692Z,17.68
2017-03-27T04:36:16.083Z,18.97
2017-03-27T04:37:20.478Z,22.48
2017-03-27T04:38:24.919Z,15.02
2017-03-27T04:39:29.433Z,18.73
2017-03-27T04:40:34.114Z,17.50
2017-03-27T04:41:38.705Z,17.77
2017-03-27T04:42:43.310Z,21.25
2017-03-27T04:43:47.936Z,17.82
2017-03-27T04:44:52.107Z,14.75
2017-03-27T04:45:56.629Z,15.18
2017-03-27T04:47:01.055Z,17.67
2017-03-27T04:48:05.496Z,16.67
2017-03-27T04:49:09.898Z,15.60
2017-03-27T04:50:14.242Z,15.07
2017-03-27T04:51:28.581Z,19.47
2017-03-27T04:52:40.424Z,18.97
2017-03-27T04:53:44.590Z,14.03
2017-03-27T04:54:49.507Z,17.17
2017-03-27T04:55:53.517Z,14.67
2017-03-27T04:56:58.989Z,16.55
2017-03-27T04:58:03.369Z,19.57
2017-03-27T04:59:07.775Z,15.02
2017-03-27T05:00:12.177Z,17.28
2017-03-27T05:01:16.583Z,16.18
2017-03-27T05:02:21.077Z,14.12
2017-03-27T05:03:25.465Z,17.07
2017-03-27T05:04:29.907Z,16.52
2017-03-27T05:05:34.141Z,19.68
2017-03-27T05:06:38.507Z,16.02
2017-03-27T05:07:42.886Z,18.15
2017-03-27T05:08:47.261Z,18.22
2017-03-27T05:09:51.671Z,24.63
2017-03-27T05:10:56.054Z,19.58
2017-03-27T05:12:00.535Z,17.37
2017-03-27T05:13:04.976Z,17.03
2017-03-27T05:14:09.398Z,19.47
2017-03-27T05:15:13.703Z,16.33
2017-03-27T05:16:18.125Z,19.57
2017-03-27T05:17:22.509Z,15.88
2017-03-27T05:18:26.986Z,19.93
2017-03-27T05:19:31.378Z,16.15
2017-03-27T05:20:36.012Z,27.05
2017-03-27T05:21:46.493Z,18.97
2017-03-27T05:22:51.309Z,15.13
2017-03-27T05:23:55.758Z,18.93
2017-03-27T05:25:00.329Z,16.45
2017-03-27T05:26:04.970Z,22.17
2017-03-27T05:27:09.337Z,14.57
2017-03-27T05:28:13.739Z,18.62
2017-03-27T05:29:18.234Z,15.62
2017-03-27T05:30:22.815Z,20.38
2017-03-27T05:31:28.532Z,21.68
2017-03-27T05:32:33.653Z,16.30
2017-03-27T05:33:37.330Z,17.84
2017-03-27T05:34:35.301Z,15.82
2017-03-27T05:35:39.504Z,16.22
2017-03-27T05:36:38.978Z,16.80
2017-03-27T05:37:36.846Z,16.08
2017-03-27T05:38:41.430Z,15.30
2017-03-27T05:39:45.274Z,16.48
2017-03-27T05:40:47.820Z,16.47
2017-03-27T05:41:51.947Z,19.25
2017-03-27T05:42:49.944Z,18.95
2017-03-27T05:43:54.614Z,17.42
2017-03-27T05:44:52.482Z,19.45
2017-03-27T05:45:56.964Z,18.58
2017-03-27T05:47:01.318Z,22.80
2017-03-27T05:48:06.256Z,20.25
2017-03-27T05:49:04.141Z,16.02
2017-03-27T05:50:02.064Z,19.57
2017-03-27T05:51:07.039Z,19.92
2017-03-27T05:52:11.626Z,22.07
2017-03-27T05:53:15.887Z,19.40
2017-03-27T05:54:20.742Z,20.22
2017-03-27T05:55:25.673Z,23.75
2017-03-27T05:56:30.285Z,24.12
2017-03-27T05:57:34.817Z,18.03
2017-03-27T05:58:39.280Z,21.37
2017-03-27T05:59:44.121Z,17.25
2017-03-27T06:00:49.028Z,21.08
2017-03-27T06:01:53.399Z,22.92
2017-03-27T06:02:57.865Z,17.80
2017-03-27T06:04:02.474Z,16.78
2017-03-27T06:05:07.028Z,20.83
2017-03-27T06:06:11.895Z,21.43
2017-03-27T06:07:16.877Z,22.15
2017-03-27T06:08:21.513Z,23.85
2017-03-27T06:09:25.786Z,21.37
2017-03-27T06:10:30.264Z,20.63
2017-03-27T06:11:34.987Z,18.18
2017-03-27T06:12:40.009Z,26.12
2017-03-27T06:13:44.415Z,22.58
2017-03-27T06:14:48.903Z,19.28
2017-03-27T06:15:53.318Z,19.17
2017-03-27T06:16:59.649Z,22.30
2017-03-27T06:18:04.245Z,16.45
2017-03-27T06:19:08.604Z,19.50
2017-03-27T06:20:13.065Z,16.92
2017-03-27T06:21:17.600Z,18.35
2017-03-27T06:22:21.464Z,22.12
2017-03-27T06:23:24.172Z,22.12
2017-03-27T06:24:28.988Z,19.17
2017-03-27T06:25:34.816Z,18.60
2017-03-27T06:26:39.820Z,20.95
2017-03-27T06:27:44.094Z,21.53
2017-03-27T06:28:51.655Z,18.30
2017-03-27T06:29:55.832Z,20.57
2017-03-27T06:31:00.365Z,20.33
2017-03-27T06:32:04.671Z,23.32
2017-03-27T06:33:09.029Z,21.77
2017-03-27T06:34:13.425Z,21.87
2017-03-27T06:35:17.944Z,18.90
2017-03-27T06:36:22.474Z,19.65
2017-03-27T06:37:26.869Z,24.03
2017-03-27T06:38:31.287Z,22.92
2017-03-27T06:39:36.792Z,23.87
2017-03-27T06:40:41.149Z,25.02
2017-03-27T06:41:48.661Z,24.85
2017-03-27T06:42:52.528Z,19.62
2017-03-27T06:43:55.649Z,20.05
2017-03-27T06:44:58.989Z,21.82
2017-03-27T06:46:03.552Z,23.68
2017-03-27T06:47:08.161Z,20.35
2017-03-27T06:48:12.672Z,26.58
2017-03-27T06:49:18.225Z,21.17
2017-03-27T06:50:21.688Z,22.57
2017-03-27T06:51:31.224Z,24.17
2017-03-27T06:52:35.700Z,23.77
2017-03-27T06:53:40.765Z,25.48
2017-03-27T06:54:44.811Z,19.31
2017-03-27T06:55:42.690Z,21.83
2017-03-27T06:56:47.112Z,26.78
2017-03-27T06:57:51.551Z,25.58
2017-03-27T06:58:58.924Z,29.18
2017-03-27T07:00:03.491Z,23.03
2017-03-27T07:01:08.088Z,23.75
2017-03-27T07:02:12.676Z,25.58
2017-03-27T07:03:17.732Z,23.20
2017-03-27T07:04:22.095Z,27.03
2017-03-27T07:05:26.803Z,20.20
2017-03-27T07:06:31.136Z,21.57
2017-03-27T07:07:35.664Z,23.63
2017-03-27T07:08:40.206Z,25.25
2017-03-27T07:09:44.411Z,22.18
2017-03-27T07:10:48.827Z,20.83
2017-03-27T07:11:53.223Z,18.03
2017-03-27T07:12:57.709Z,22.53
2017-03-27T07:14:09.095Z,18.42
2017-03-27T07:15:17.688Z,18.60
2017-03-27T07:16:22.104Z,25.43
2017-03-27T07:17:27.419Z,19.93
2017-03-27T07:18:32.900Z,21.59
2017-03-27T07:19:37.691Z,20.20
2017-03-27T07:20:42.095Z,10.47
2017-03-27T07:21:40.449Z,14.02
2017-03-27T07:22:38.462Z,11.82
2017-03-27T07:23:43.425Z,9.90
2017-03-27T07:24:47.592Z,8.73
2017-03-27T07:25:53.699Z,7.21
2017-03-27T07:26:58.368Z,6.48
2017-03-27T07:28:03.329Z,8.07
2017-03-27T07:29:08.076Z,4.34
2017-03-27T07:30:11.876Z,4.91
2017-03-27T07:31:14.854Z,5.56
2017-03-27T07:32:18.697Z,5.14
2017-03-27T07:33:23.676Z,3.49
2017-03-27T07:34:27.617Z,4.83
2017-03-27T07:35:32.712Z,4.06
2017-03-27T07:36:37.063Z,4.20
2017-03-27T07:37:41.501Z,5.97
2017-03-27T07:38:45.697Z,3.56
2017-03-27T07:39:50.461Z,6.79
2017-03-27T07:40:54.871Z,8.27
2017-03-27T07:41:58.361Z,4.97
2017-03-27T07:43:02.619Z,3.30
2017-03-27T07:44:06.546Z,8.27
2017-03-27T07:45:09.826Z,4.53
2017-03-27T07:46:13.475Z,4.53
2017-03-27T07:47:17.736Z,5.71
2017-03-27T07:48:22.309Z,4.97
2017-03-27T07:49:27.293Z,4.93
2017-03-27T07:50:33.059Z,6.19
2017-03-27T07:51:37.184Z,3.50
2017-03-27T07:52:40.896Z,4.50
2017-03-27T07:53:46.004Z,4.74
2017-03-27T07:54:51.573Z,3.60
2017-03-27T07:55:55.227Z,4.26
2017-03-27T07:56:59.344Z,3.97
2017-03-27T07:58:02.855Z,6.70
2017-03-27T07:59:06.904Z,4.50
2017-03-27T08:00:11.503Z,2.69
2017-03-27T08:01:15.956Z,3.21
2017-03-27T08:02:22.705Z,5.31
2017-03-27T08:03:27.081Z,3.30
2017-03-27T08:04:31.719Z,3.96
2017-03-27T08:05:36.096Z,4.84
2017-03-27T08:06:40.075Z,4.81
2017-03-27T08:07:44.834Z,4.69
2017-03-27T08:08:48.764Z,5.24
2017-03-27T08:09:53.324Z,4.61
2017-03-27T08:10:56.988Z,4.94
2017-03-27T08:12:01.060Z,3.27
2017-03-27T08:13:05.384Z,4.10
2017-03-27T08:14:08.065Z,3.27
2017-03-27T08:15:12.492Z,4.24
2017-03-27T08:16:16.246Z,5.77
2017-03-27T08:17:19.852Z,4.04
2017-03-27T08:18:23.416Z,2.64
2017-03-27T08:19:26.792Z,6.87
2017-03-27T08:20:30.783Z,4.27
2017-03-27T08:21:33.247Z,3.79
2017-03-27T08:22:37.256Z,4.07
2017-03-27T08:23:41.762Z,3.73
2017-03-27T08:24:45.848Z,4.49
2017-03-27T08:25:50.233Z,4.97
2017-03-27T08:26:54.018Z,3.36
2017-03-27T08:27:57.389Z,4.77
2017-03-27T08:29:00.800Z,5.37
2017-03-27T08:30:04.329Z,3.41
2017-03-27T08:31:07.989Z,2.59
2017-03-27T08:32:11.312Z,4.06
2017-03-27T08:33:14.838Z,6.10
2017-03-27T08:34:18.292Z,3.30
2017-03-27T08:35:21.575Z,3.53
2017-03-27T08:36:25.027Z,3.66
2017-03-27T08:37:29.052Z,3.59
2017-03-27T08:38:31.657Z,3.16
2017-03-27T08:39:34.347Z,3.64
2017-03-27T08:40:38.232Z,4.77
2017-03-27T08:41:42.775Z,2.54
2017-03-27T08:42:46.459Z,2.86
2017-03-27T08:43:49.844Z,3.10
2017-03-27T08:44:58.084Z,7.51
2017-03-27T08:46:03.526Z,4.23
2017-03-27T08:47:06.920Z,2.97
2017-03-27T08:48:10.305Z,3.30
2017-03-27T08:49:13.662Z,3.40
2017-03-27T08:50:17.617Z,3.01
2017-03-27T08:51:20.763Z,3.59
2017-03-27T08:52:24.240Z,2.79
2017-03-27T08:53:27.629Z,2.67
2017-03-27T08:54:31.908Z,2.96
2017-03-27T08:55:36.284Z,4.04
2017-03-27T08:56:40.899Z,4.43
2017-03-27T08:57:45.073Z,2.83
2017-03-27T08:58:49.410Z,3.90
2017-03-27T08:59:53.201Z,3.70
2017-03-27T09:00:57.166Z,3.03
2017-03-27T09:02:01.545Z,6.90
2017-03-27T09:03:04.046Z,4.80
2017-03-27T09:04:08.244Z,4.24
2017-03-27T09:05:12.261Z,4.79
2017-03-27T09:06:14.687Z,4.16
2017-03-27T09:07:18.473Z,3.71
2017-03-27T09:08:21.744Z,5.64
2017-03-27T09:09:26.929Z,3.96
2017-03-27T09:10:30.657Z,8.97
2017-03-27T09:11:34.571Z,5.04
2017-03-27T09:12:38.384Z,5.14
2017-03-27T09:13:43.583Z,6.67
2017-03-27T09:14:47.408Z,4.26
2017-03-27T09:15:51.833Z,5.47
2017-03-27T09:16:55.990Z,3.90
2017-03-27T09:18:00.378Z,5.67
2017-03-27T09:19:04.298Z,4.37
2017-03-27T09:20:08.255Z,4.06
2017-03-27T09:21:12.039Z,4.40
2017-03-27T09:22:15.967Z,3.39
2017-03-27T09:23:18.834Z,3.93
2017-03-27T09:24:23.212Z,4.19
2017-03-27T09:25:28.088Z,2.87
2017-03-27T09:26:32.271Z,4.79
2017-03-27T09:27:36.809Z,4.23
2017-03-27T09:28:41.310Z,3.17
2017-03-27T09:29:45.862Z,4.14
2017-03-27T09:30:50.476Z,2.59
2017-03-27T09:31:55.069Z,2.83
2017-03-27T09:32:58.738Z,2.80
2017-03-27T09:34:02.893Z,3.86
2017-03-27T09:35:01.251Z,3.71
2017-03-27T09:36:05.387Z,3.11
2017-03-27T09:37:03.213Z,4.54
2017-03-27T09:38:01.120Z,3.71
2017-03-27T09:39:06.521Z,4.63
2017-03-27T09:40:10.132Z,5.41
2017-03-27T09:41:15.132Z,3.64
2017-03-27T09:42:18.003Z,3.39
2017-03-27T09:43:22.810Z,3.59
2017-03-27T09:44:28.187Z,3.71
2017-03-27T09:45:32.106Z,4.01
2017-03-27T09:46:36.683Z,2.86
2017-03-27T09:47:40.856Z,3.61
2017-03-27T09:48:45.163Z,6.86
2017-03-27T09:49:49.228Z,6.19
2017-03-27T09:50:52.905Z,3.87
2017-03-27T09:51:56.351Z,4.44
2017-03-27T09:53:00.229Z,4.71
2017-03-27T09:54:04.434Z,3.80
2017-03-27T09:55:09.832Z,3.67
2017-03-27T09:56:15.316Z,2.63
2017-03-27T09:57:18.776Z,3.49
2017-03-27T09:58:23.874Z,3.37
2017-03-27T09:59:28.282Z,3.23
2017-03-27T10:00:33.631Z,3.64
2017-03-27T10:01:38.552Z,5.17
2017-03-27T10:02:41.789Z,3.11
2017-03-27T10:03:46.233Z,5.30
2017-03-27T10:04:51.584Z,2.93
2017-03-27T10:05:56.030Z,3.74
2017-03-27T10:06:59.856Z,3.24
2017-03-27T10:08:04.830Z,4.47
2017-03-27T10:09:10.473Z,4.49
2017-03-27T10:10:16.507Z,3.41
2017-03-27T10:11:21.203Z,5.69
2017-03-27T10:12:26.599Z,3.40
2017-03-27T10:13:31.278Z,3.41
2017-03-27T10:14:35.728Z,3.94
2017-03-27T10:15:39.048Z,4.60
2017-03-27T10:16:43.612Z,5.80
2017-03-27T10:17:48.431Z,4.24
2017-03-27T10:18:52.344Z,3.96
2017-03-27T10:19:56.798Z,4.94
2017-03-27T10:21:01.443Z,5.17
2017-03-27T10:22:06.008Z,4.91
2017-03-27T10:23:16.471Z,4.96
2017-03-27T10:24:20.460Z,3.49
2017-03-27T10:25:25.392Z,3.24
2017-03-27T10:26:29.854Z,3.13
2017-03-27T10:27:34.685Z,2.79
2017-03-27T10:28:39.665Z,2.94
2017-03-27T10:29:44.645Z,4.83
2017-03-27T10:30:49.633Z,4.47
2017-03-27T10:31:54.008Z,4.20
2017-03-27T10:32:58.666Z,4.51
2017-03-27T10:34:03.175Z,4.10
2017-03-27T10:35:07.731Z,3.74
2017-03-27T10:36:12.000Z,4.51
2017-03-27T10:37:16.543Z,5.74
2017-03-27T10:38:21.281Z,5.64
2017-03-27T10:39:26.347Z,6.14
2017-03-27T10:40:30.770Z,4.03
2017-03-27T10:41:35.204Z,5.04
2017-03-27T10:42:39.913Z,3.33
2017-03-27T10:43:44.557Z,3.10
2017-03-27T10:44:49.548Z,6.21
2017-03-27T10:45:54.044Z,3.41
2017-03-27T10:46:58.828Z,4.27
2017-03-27T10:48:03.265Z,3.80
2017-03-27T10:49:07.600Z,4.14
2017-03-27T10:50:12.008Z,4.20
2017-03-27T10:51:16.674Z,4.01
2017-03-27T10:52:21.288Z,4.66
2017-03-27T10:53:26.267Z,5.07
2017-03-27T10:54:31.660Z,3.51
2017-03-27T10:55:36.372Z,3.39
2017-03-27T10:56:41.934Z,5.53
2017-03-27T10:57:46.759Z,3.33
2017-03-27T10:58:54.419Z,3.89
2017-03-27T10:59:58.822Z,5.37
2017-03-27T11:01:03.886Z,5.21
2017-03-27T11:02:12.446Z,3.13
2017-03-27T11:03:16.589Z,4.14
2017-03-27T11:04:21.213Z,5.11
2017-03-27T11:05:25.474Z,3.44
2017-03-27T11:06:35.828Z,3.80
2017-03-27T11:07:39.968Z,3.77
2017-03-27T11:08:44.585Z,5.21
2017-03-27T11:09:49.153Z,3.86
2017-03-27T11:10:53.749Z,3.31
2017-03-27T11:11:59.040Z,3.39
2017-03-27T11:13:03.065Z,5.16
2017-03-27T11:15:40.496Z,3.11
2017-03-27T11:16:45.332Z,3.16
2017-03-27T11:17:54.909Z,3.79
2017-03-27T11:18:59.393Z,3.36
2017-03-27T11:20:03.882Z,3.86
2017-03-27T11:21:08.823Z,4.99
2017-03-27T11:22:12.817Z,3.00
2017-03-27T11:23:17.693Z,3.64
2017-03-27T11:24:20.295Z,2.97
2017-03-27T11:25:25.100Z,3.50
2017-03-27T11:26:29.631Z,3.34
2017-03-27T11:27:33.927Z,3.89
2017-03-27T11:28:38.184Z,4.09
2017-03-27T11:29:41.979Z,4.09
2017-03-27T11:30:45.388Z,3.07
2017-03-27T11:31:50.998Z,3.46
2017-03-27T11:32:54.800Z,3.61
2017-03-27T11:33:58.853Z,4.03
2017-03-27T11:35:02.976Z,3.73
2017-03-27T11:36:06.608Z,3.80
2017-03-27T11:37:16.655Z,4.44
2017-03-27T11:38:19.952Z,3.70
2017-03-27T11:39:24.242Z,5.41
2017-03-27T11:40:27.889Z,3.67
2017-03-27T11:41:32.192Z,4.24
2017-03-27T11:42:36.328Z,3.06
2017-03-27T11:43:40.660Z,4.30
2017-03-27T11:44:46.180Z,3.73
2017-03-27T11:45:50.655Z,4.16
2017-03-27T11:46:54.734Z,4.34
2017-03-27T11:47:59.335Z,3.83
2017-03-27T11:49:03.913Z,4.27
2017-03-27T11:50:12.581Z,3.71
2017-03-27T11:51:16.688Z,5.80
2017-03-27T11:52:26.520Z,3.03
2017-03-27T11:53:31.003Z,3.53
2017-03-27T11:54:36.126Z,3.10
2017-03-27T11:55:40.504Z,3.16
2017-03-27T11:56:45.060Z,4.16
2017-03-27T11:57:49.601Z,5.49
2017-03-27T11:59:06.755Z,3.56
2017-03-27T12:00:11.656Z,3.16
2017-03-27T12:01:16.147Z,3.63
2017-03-27T12:02:20.573Z,4.59
2017-03-27T12:03:24.834Z,6.14
2017-03-27T12:04:29.374Z,4.49
2017-03-27T12:05:33.968Z,2.64
2017-03-27T12:06:39.844Z,3.34
2017-03-27T12:07:44.572Z,4.29
2017-03-27T12:08:49.150Z,3.33
2017-03-27T12:09:53.564Z,3.70
2017-03-27T12:10:57.944Z,3.41
2017-03-27T12:12:02.293Z,2.94
2017-03-27T12:13:06.662Z,5.60
2017-03-27T12:14:14.120Z,3.21
2017-03-27T12:15:18.389Z,4.21
2017-03-27T12:16:22.928Z,4.86
2017-03-27T12:17:27.490Z,3.69
2017-03-27T12:18:34.799Z,3.61
2017-03-27T12:19:41.883Z,3.30
2017-03-27T12:20:52.200Z,2.90
2017-03-27T12:21:57.280Z,5.97
2017-03-27T12:23:02.751Z,4.00
2017-03-27T12:24:07.447Z,7.17
2017-03-27T12:25:13.322Z,4.81
2017-03-27T12:26:17.940Z,4.13
2017-03-27T12:27:23.278Z,2.89
2017-03-27T12:29:55.281Z,2.97
2017-03-27T12:30:59.306Z,3.61
2017-03-27T12:32:03.940Z,2.96
2017-03-27T12:33:09.098Z,3.13
2017-03-27T12:34:13.640Z,4.30
2017-03-27T12:35:17.944Z,3.67
2017-03-27T12:36:23.352Z,3.93
2017-03-27T12:37:29.176Z,3.06
2017-03-27T12:38:34.446Z,3.79
2017-03-27T12:39:39.817Z,3.69
2017-03-27T12:40:44.544Z,3.06
2017-03-27T12:41:48.587Z,3.46
2017-03-27T12:42:53.276Z,3.13
2017-03-27T12:43:57.899Z,2.94
2017-03-27T12:45:02.496Z,2.66
2017-03-27T12:46:07.553Z,2.90
2017-03-27T12:47:13.740Z,3.37
2017-03-27T12:48:17.759Z,3.96
2017-03-27T12:49:22.208Z,5.16
2017-03-27T12:50:26.848Z,3.64
2017-03-27T12:51:31.321Z,3.86
2017-03-27T12:52:40.813Z,3.69
2017-03-27T12:53:45.886Z,4.80
2017-03-27T12:54:55.685Z,3.59
2017-03-27T12:56:00.780Z,2.97
2017-03-27T12:57:05.439Z,3.67
2017-03-27T12:58:09.893Z,4.06
2017-03-27T12:59:14.184Z,3.50
2017-03-27T13:01:40.901Z,4.03
2017-03-27T13:02:45.672Z,3.54
2017-03-27T13:03:49.817Z,3.50
2017-03-27T13:04:54.326Z,4.17
2017-03-27T13:05:58.838Z,6.03
2017-03-27T13:07:03.276Z,3.29
2017-03-27T13:08:07.943Z,3.33
2017-03-27T13:09:12.337Z,3.89
2017-03-27T13:10:17.036Z,3.50
2017-03-27T13:11:21.607Z,4.07
2017-03-27T13:12:26.271Z,3.56
2017-03-27T13:13:30.402Z,5.50
2017-03-27T13:14:34.927Z,3.41
2017-03-27T13:15:39.566Z,3.90
2017-03-27T13:16:44.788Z,5.54
2017-03-27T13:17:49.089Z,3.67
2017-03-27T13:18:53.050Z,3.24
2017-03-27T13:19:58.234Z,4.27
2017-03-27T13:21:04.049Z,2.90
2017-03-27T13:22:09.348Z,3.03
2017-03-27T13:23:14.972Z,2.73
2017-03-27T13:24:19.619Z,2.89
2017-03-27T13:25:25.271Z,4.17
2017-03-27T13:26:29.901Z,2.86
2017-03-27T13:27:34.577Z,3.87
2017-03-27T13:28:39.572Z,2.67
2017-03-27T13:29:43.956Z,2.70
2017-03-27T13:30:50.316Z,2.90
2017-03-27T13:31:54.768Z,2.93
2017-03-27T13:32:59.275Z,2.90
2017-03-27T13:34:02.842Z,3.21
2017-03-27T13:35:07.095Z,2.89
2017-03-27T13:36:11.303Z,3.91
2017-03-27T13:37:16.160Z,4.17
2017-03-27T13:38:20.154Z,2.61
2017-03-27T13:39:24.817Z,3.07
2017-03-27T13:40:45.445Z,5.63
2017-03-27T13:41:50.387Z,3.41
2017-03-27T13:43:00.250Z,2.44
2017-03-27T13:44:05.113Z,3.49
2017-03-27T13:45:14.038Z,3.73
2017-03-27T13:46:18.600Z,3.09
2017-03-27T13:47:24.414Z,4.43
2017-03-27T13:48:28.619Z,2.49
2017-03-27T13:49:33.675Z,2.83
2017-03-27T13:50:39.661Z,3.11
2017-03-27T13:51:45.150Z,2.54
2017-03-27T13:52:50.081Z,3.36
2017-03-27T13:53:55.515Z,3.26
2017-03-27T13:55:00.391Z,3.16
2017-03-27T13:56:04.930Z,2.83
2017-03-27T13:57:09.565Z,2.90
2017-03-27T13:58:14.069Z,2.54
2017-03-27T13:59:18.453Z,3.57
2017-03-27T14:00:22.800Z,4.46
2017-03-27T14:01:27.816Z,2.69
2017-03-27T14:02:33.246Z,2.80
2017-03-27T14:03:38.611Z,2.71
2017-03-27T14:04:43.365Z,3.00
2017-03-27T14:05:48.307Z,2.86
2017-03-27T14:08:18.919Z,3.07
2017-03-27T14:09:23.219Z,3.33
2017-03-27T14:10:28.390Z,2.26